sensor_id;sensor_type;location;lat;lon;timestamp;P1;durP1;ratioP1;P2;durP2;ratioP2
72569;SDS011;60594;50.204;8.844;2023-08-01T00:00:08;13.73;;;5.65;;
72569;SDS011;60594;50.204;8.844;2023-08-01T00:02:59;16.05;;;5.80;;
72569;SDS011;60594;50.204;8.844;2023-08-01T00:05:26;13.90;;;5.13;;
72569;SDS011;60594;50.204;8.844;2023-08-01T00:07:52;13.02;;;5.15;;
72569;SDS011;60594;50.204;8.844;2023-08-01T00:10:19;13.32;;;5.63;;
72569;SDS011;60594;50.204;8.844;2023-08-01T00:12:46;11.80;;;4.93;;
72569;SDS011;60594;50.204;8.844;2023-08-01T00:15:13;14.00;;;5.85;;
72569;SDS011;60594;50.204;8.844;2023-08-01T00:17:40;15.15;;;5.32;;
72569;SDS011;60594;50.204;8.844;2023-08-01T00:20:07;14.52;;;5.47;;
72569;SDS011;60594;50.204;8.844;2023-08-01T00:22:34;17.33;;;6.47;;
72569;SDS011;60594;50.204;8.844;2023-08-01T00:25:01;14.35;;;6.10;;
72569;SDS011;60594;50.204;8.844;2023-08-01T00:27:28;17.73;;;5.60;;
72569;SDS011;60594;50.204;8.844;2023-08-01T00:29:56;14.35;;;6.10;;
72569;SDS011;60594;50.204;8.844;2023-08-01T00:32:22;15.98;;;6.07;;
72569;SDS011;60594;50.204;8.844;2023-08-01T00:34:50;14.00;;;5.60;;
72569;SDS011;60594;50.204;8.844;2023-08-01T00:39:44;16.90;;;5.15;;
72569;SDS011;60594;50.204;8.844;2023-08-01T00:42:11;14.80;;;5.95;;
72569;SDS011;60594;50.204;8.844;2023-08-01T00:44:40;14.65;;;5.80;;
72569;SDS011;60594;50.204;8.844;2023-08-01T00:47:07;15.00;;;6.68;;
72569;SDS011;60594;50.204;8.844;2023-08-01T00:49:36;17.10;;;7.13;;
72569;SDS011;60594;50.204;8.844;2023-08-01T00:52:02;14.27;;;6.90;;
72569;SDS011;60594;50.204;8.844;2023-08-01T00:54:30;17.55;;;6.35;;
72569;SDS011;60594;50.204;8.844;2023-08-01T00:57:05;15.70;;;5.93;;
72569;SDS011;60594;50.204;8.844;2023-08-01T00:59:32;17.92;;;6.63;;
72569;SDS011;60594;50.204;8.844;2023-08-01T01:01:59;16.73;;;6.80;;
72569;SDS011;60594;50.204;8.844;2023-08-01T01:04:26;15.80;;;7.10;;
72569;SDS011;60594;50.204;8.844;2023-08-01T01:06:57;20.38;;;6.90;;
72569;SDS011;60594;50.204;8.844;2023-08-01T01:09:27;16.25;;;6.82;;
72569;SDS011;60594;50.204;8.844;2023-08-01T01:11:55;16.85;;;6.60;;
72569;SDS011;60594;50.204;8.844;2023-08-01T01:14:22;18.02;;;6.18;;
72569;SDS011;60594;50.204;8.844;2023-08-01T01:16:48;18.30;;;6.95;;
72569;SDS011;60594;50.204;8.844;2023-08-01T01:19:15;17.23;;;6.63;;
72569;SDS011;60594;50.204;8.844;2023-08-01T01:21:43;15.85;;;6.72;;
72569;SDS011;60594;50.204;8.844;2023-08-01T01:24:12;15.50;;;5.80;;
72569;SDS011;60594;50.204;8.844;2023-08-01T01:26:41;15.27;;;6.40;;
72569;SDS011;60594;50.204;8.844;2023-08-01T01:31:36;14.95;;;6.03;;
72569;SDS011;60594;50.204;8.844;2023-08-01T01:34:04;17.20;;;5.90;;
72569;SDS011;60594;50.204;8.844;2023-08-01T01:36:30;14.50;;;5.30;;
72569;SDS011;60594;50.204;8.844;2023-08-01T01:38:57;16.77;;;6.07;;
72569;SDS011;60594;50.204;8.844;2023-08-01T01:41:24;15.10;;;5.72;;
72569;SDS011;60594;50.204;8.844;2023-08-01T01:43:52;13.05;;;5.72;;
72569;SDS011;60594;50.204;8.844;2023-08-01T01:46:18;12.13;;;5.57;;
72569;SDS011;60594;50.204;8.844;2023-08-01T01:48:45;12.65;;;5.63;;
72569;SDS011;60594;50.204;8.844;2023-08-01T01:51:11;13.90;;;5.75;;
72569;SDS011;60594;50.204;8.844;2023-08-01T01:53:38;10.30;;;4.70;;
72569;SDS011;60594;50.204;8.844;2023-08-01T01:56:05;11.52;;;5.60;;
72569;SDS011;60594;50.204;8.844;2023-08-01T01:58:31;13.23;;;5.40;;
72569;SDS011;60594;50.204;8.844;2023-08-01T02:00:58;13.55;;;5.68;;
72569;SDS011;60594;50.204;8.844;2023-08-01T02:03:25;15.00;;;6.07;;
72569;SDS011;60594;50.204;8.844;2023-08-01T02:05:51;14.75;;;5.45;;
72569;SDS011;60594;50.204;8.844;2023-08-01T02:08:19;16.50;;;6.72;;
72569;SDS011;60594;50.204;8.844;2023-08-01T02:10:47;16.45;;;6.55;;
72569;SDS011;60594;50.204;8.844;2023-08-01T02:13:14;17.13;;;7.28;;
72569;SDS011;60594;50.204;8.844;2023-08-01T02:15:41;16.85;;;6.35;;
72569;SDS011;60594;50.204;8.844;2023-08-01T02:18:08;15.88;;;7.03;;
72569;SDS011;60594;50.204;8.844;2023-08-01T02:20:34;14.43;;;6.38;;
72569;SDS011;60594;50.204;8.844;2023-08-01T02:23:01;16.60;;;6.88;;
72569;SDS011;60594;50.204;8.844;2023-08-01T02:25:28;16.15;;;6.78;;
72569;SDS011;60594;50.204;8.844;2023-08-01T02:27:54;14.88;;;6.70;;
72569;SDS011;60594;50.204;8.844;2023-08-01T02:30:21;17.70;;;6.90;;
72569;SDS011;60594;50.204;8.844;2023-08-01T02:32:48;19.45;;;6.65;;
72569;SDS011;60594;50.204;8.844;2023-08-01T02:35:14;16.60;;;7.18;;
72569;SDS011;60594;50.204;8.844;2023-08-01T02:37:41;16.45;;;6.63;;
72569;SDS011;60594;50.204;8.844;2023-08-01T02:40:09;19.35;;;6.25;;
72569;SDS011;60594;50.204;8.844;2023-08-01T02:42:36;13.57;;;6.55;;
72569;SDS011;60594;50.204;8.844;2023-08-01T02:45:03;13.75;;;6.13;;
72569;SDS011;60594;50.204;8.844;2023-08-01T02:47:30;16.20;;;6.40;;
72569;SDS011;60594;50.204;8.844;2023-08-01T02:49:57;13.82;;;5.47;;
72569;SDS011;60594;50.204;8.844;2023-08-01T02:52:24;17.17;;;6.00;;
72569;SDS011;60594;50.204;8.844;2023-08-01T02:54:50;14.10;;;5.70;;
72569;SDS011;60594;50.204;8.844;2023-08-01T02:57:17;13.85;;;6.13;;
72569;SDS011;60594;50.204;8.844;2023-08-01T02:59:43;16.35;;;6.22;;
72569;SDS011;60594;50.204;8.844;2023-08-01T03:02:10;14.05;;;6.53;;
72569;SDS011;60594;50.204;8.844;2023-08-01T03:04:36;15.73;;;6.40;;
72569;SDS011;60594;50.204;8.844;2023-08-01T03:07:03;13.18;;;6.47;;
72569;SDS011;60594;50.204;8.844;2023-08-01T03:09:30;12.15;;;4.78;;
72569;SDS011;60594;50.204;8.844;2023-08-01T03:11:58;13.00;;;6.28;;
72569;SDS011;60594;50.204;8.844;2023-08-01T03:14:25;11.43;;;5.53;;
72569;SDS011;60594;50.204;8.844;2023-08-01T03:16:51;10.98;;;5.10;;
72569;SDS011;60594;50.204;8.844;2023-08-01T03:19:18;13.57;;;5.47;;
72569;SDS011;60594;50.204;8.844;2023-08-01T03:21:45;12.55;;;5.57;;
72569;SDS011;60594;50.204;8.844;2023-08-01T03:24:11;12.82;;;5.28;;
72569;SDS011;60594;50.204;8.844;2023-08-01T03:26:38;11.95;;;5.63;;
72569;SDS011;60594;50.204;8.844;2023-08-01T03:29:04;12.70;;;5.20;;
72569;SDS011;60594;50.204;8.844;2023-08-01T03:31:32;10.15;;;5.10;;
72569;SDS011;60594;50.204;8.844;2023-08-01T03:33:59;18.38;;;6.57;;
72569;SDS011;60594;50.204;8.844;2023-08-01T03:36:26;10.75;;;5.07;;
72569;SDS011;60594;50.204;8.844;2023-08-01T03:38:52;11.35;;;4.93;;
72569;SDS011;60594;50.204;8.844;2023-08-01T03:41:19;13.32;;;5.68;;
72569;SDS011;60594;50.204;8.844;2023-08-01T03:43:45;11.65;;;4.85;;
72569;SDS011;60594;50.204;8.844;2023-08-01T03:46:12;11.27;;;5.30;;
72569;SDS011;60594;50.204;8.844;2023-08-01T03:48:38;13.23;;;5.20;;
72569;SDS011;60594;50.204;8.844;2023-08-01T03:51:05;11.80;;;5.32;;
72569;SDS011;60594;50.204;8.844;2023-08-01T03:53:31;11.48;;;5.50;;
72569;SDS011;60594;50.204;8.844;2023-08-01T03:55:58;11.27;;;5.32;;
72569;SDS011;60594;50.204;8.844;2023-08-01T03:58:25;11.95;;;5.07;;
72569;SDS011;60594;50.204;8.844;2023-08-01T04:00:51;12.00;;;5.07;;
72569;SDS011;60594;50.204;8.844;2023-08-01T04:03:18;12.73;;;5.00;;
72569;SDS011;60594;50.204;8.844;2023-08-01T04:05:44;13.40;;;5.47;;
72569;SDS011;60594;50.204;8.844;2023-08-01T04:08:11;10.43;;;4.38;;
72569;SDS011;60594;50.204;8.844;2023-08-01T04:10:37;11.80;;;4.90;;
72569;SDS011;60594;50.204;8.844;2023-08-01T04:13:04;10.30;;;5.18;;
72569;SDS011;60594;50.204;8.844;2023-08-01T04:15:30;12.30;;;5.70;;
72569;SDS011;60594;50.204;8.844;2023-08-01T04:17:57;11.23;;;4.88;;
72569;SDS011;60594;50.204;8.844;2023-08-01T04:20:23;9.07;;;4.22;;
72569;SDS011;60594;50.204;8.844;2023-08-01T04:22:50;11.13;;;5.13;;
72569;SDS011;60594;50.204;8.844;2023-08-01T04:25:16;10.65;;;4.72;;
72569;SDS011;60594;50.204;8.844;2023-08-01T04:27:43;10.20;;;5.07;;
72569;SDS011;60594;50.204;8.844;2023-08-01T04:30:10;11.88;;;5.30;;
72569;SDS011;60594;50.204;8.844;2023-08-01T04:32:37;12.60;;;5.30;;
72569;SDS011;60594;50.204;8.844;2023-08-01T04:35:04;9.88;;;4.63;;
72569;SDS011;60594;50.204;8.844;2023-08-01T04:37:31;12.43;;;4.65;;
72569;SDS011;60594;50.204;8.844;2023-08-01T04:39:58;11.77;;;5.70;;
72569;SDS011;60594;50.204;8.844;2023-08-01T04:42:25;10.10;;;5.05;;
72569;SDS011;60594;50.204;8.844;2023-08-01T04:44:52;10.13;;;4.82;;
72569;SDS011;60594;50.204;8.844;2023-08-01T04:47:18;10.27;;;4.57;;
72569;SDS011;60594;50.204;8.844;2023-08-01T04:49:45;9.77;;;4.75;;
72569;SDS011;60594;50.204;8.844;2023-08-01T04:52:12;10.88;;;5.15;;
72569;SDS011;60594;50.204;8.844;2023-08-01T04:54:38;9.25;;;4.57;;
72569;SDS011;60594;50.204;8.844;2023-08-01T04:57:05;10.90;;;5.05;;
72569;SDS011;60594;50.204;8.844;2023-08-01T04:59:31;8.43;;;4.60;;
72569;SDS011;60594;50.204;8.844;2023-08-01T05:01:58;10.43;;;4.53;;
72569;SDS011;60594;50.204;8.844;2023-08-01T05:04:25;13.45;;;3.28;;
72569;SDS011;60594;50.204;8.844;2023-08-01T05:06:51;8.23;;;4.10;;
72569;SDS011;60594;50.204;8.844;2023-08-01T05:09:18;8.48;;;2.95;;
72569;SDS011;60594;50.204;8.844;2023-08-01T05:11:44;8.15;;;2.92;;
72569;SDS011;60594;50.204;8.844;2023-08-01T05:14:10;6.40;;;2.70;;
72569;SDS011;60594;50.204;8.844;2023-08-01T05:16:37;8.27;;;2.83;;
72569;SDS011;60594;50.204;8.844;2023-08-01T05:19:03;10.43;;;3.67;;
72569;SDS011;60594;50.204;8.844;2023-08-01T05:21:30;6.53;;;3.25;;
72569;SDS011;60594;50.204;8.844;2023-08-01T05:23:57;8.93;;;4.03;;
72569;SDS011;60594;50.204;8.844;2023-08-01T05:26:24;7.97;;;3.97;;
72569;SDS011;60594;50.204;8.844;2023-08-01T05:28:51;7.75;;;3.60;;
72569;SDS011;60594;50.204;8.844;2023-08-01T05:31:17;8.98;;;3.88;;
72569;SDS011;60594;50.204;8.844;2023-08-01T05:33:43;9.88;;;3.80;;
72569;SDS011;60594;50.204;8.844;2023-08-01T05:36:10;10.05;;;4.18;;
72569;SDS011;60594;50.204;8.844;2023-08-01T05:38:37;9.93;;;4.25;;
72569;SDS011;60594;50.204;8.844;2023-08-01T05:41:04;7.80;;;3.03;;
72569;SDS011;60594;50.204;8.844;2023-08-01T05:43:30;8.45;;;3.25;;
72569;SDS011;60594;50.204;8.844;2023-08-01T05:45:57;7.50;;;3.17;;
72569;SDS011;60594;50.204;8.844;2023-08-01T05:48:23;7.40;;;3.78;;
72569;SDS011;60594;50.204;8.844;2023-08-01T05:50:50;8.05;;;4.25;;
72569;SDS011;60594;50.204;8.844;2023-08-01T05:53:16;6.97;;;3.25;;
72569;SDS011;60594;50.204;8.844;2023-08-01T05:55:43;8.20;;;3.55;;
72569;SDS011;60594;50.204;8.844;2023-08-01T05:58:09;6.47;;;2.90;;
72569;SDS011;60594;50.204;8.844;2023-08-01T06:00:36;7.60;;;3.70;;
72569;SDS011;60594;50.204;8.844;2023-08-01T06:03:03;8.43;;;4.25;;
72569;SDS011;60594;50.204;8.844;2023-08-01T06:05:30;7.97;;;3.65;;
72569;SDS011;60594;50.204;8.844;2023-08-01T06:07:56;8.70;;;3.80;;
72569;SDS011;60594;50.204;8.844;2023-08-01T06:10:23;5.85;;;3.20;;
72569;SDS011;60594;50.204;8.844;2023-08-01T06:12:50;8.88;;;3.60;;
72569;SDS011;60594;50.204;8.844;2023-08-01T06:15:16;8.75;;;3.85;;
72569;SDS011;60594;50.204;8.844;2023-08-01T06:17:43;6.68;;;2.85;;
72569;SDS011;60594;50.204;8.844;2023-08-01T06:20:09;7.95;;;3.28;;
72569;SDS011;60594;50.204;8.844;2023-08-01T06:22:36;8.27;;;3.42;;
72569;SDS011;60594;50.204;8.844;2023-08-01T06:25:03;7.25;;;2.45;;
72569;SDS011;60594;50.204;8.844;2023-08-01T06:27:30;4.38;;;1.58;;
72569;SDS011;60594;50.204;8.844;2023-08-01T06:29:56;3.65;;;1.70;;
72569;SDS011;60594;50.204;8.844;2023-08-01T06:32:23;3.67;;;1.55;;
72569;SDS011;60594;50.204;8.844;2023-08-01T06:34:50;4.30;;;1.75;;
72569;SDS011;60594;50.204;8.844;2023-08-01T06:37:16;3.25;;;1.33;;
72569;SDS011;60594;50.204;8.844;2023-08-01T06:39:43;4.68;;;1.80;;
72569;SDS011;60594;50.204;8.844;2023-08-01T06:42:09;4.88;;;1.90;;
72569;SDS011;60594;50.204;8.844;2023-08-01T06:44:36;3.10;;;1.70;;
72569;SDS011;60594;50.204;8.844;2023-08-01T06:47:03;4.43;;;1.88;;
72569;SDS011;60594;50.204;8.844;2023-08-01T06:49:30;4.10;;;1.40;;
72569;SDS011;60594;50.204;8.844;2023-08-01T06:51:56;2.92;;;1.50;;
72569;SDS011;60594;50.204;8.844;2023-08-01T06:54:23;5.43;;;1.77;;
72569;SDS011;60594;50.204;8.844;2023-08-01T06:56:49;3.38;;;1.83;;
72569;SDS011;60594;50.204;8.844;2023-08-01T06:59:16;5.07;;;1.80;;
72569;SDS011;60594;50.204;8.844;2023-08-01T07:01:43;3.72;;;1.80;;
72569;SDS011;60594;50.204;8.844;2023-08-01T07:04:10;3.35;;;1.55;;
72569;SDS011;60594;50.204;8.844;2023-08-01T07:06:37;3.15;;;1.65;;
72569;SDS011;60594;50.204;8.844;2023-08-01T07:09:04;4.50;;;1.95;;
72569;SDS011;60594;50.204;8.844;2023-08-01T07:11:30;3.72;;;1.67;;
72569;SDS011;60594;50.204;8.844;2023-08-01T07:13:57;4.18;;;1.95;;
72569;SDS011;60594;50.204;8.844;2023-08-01T07:16:24;7.05;;;2.13;;
72569;SDS011;60594;50.204;8.844;2023-08-01T07:18:50;3.97;;;1.55;;
72569;SDS011;60594;50.204;8.844;2023-08-01T07:21:17;4.90;;;2.00;;
72569;SDS011;60594;50.204;8.844;2023-08-01T07:23:43;5.47;;;2.03;;
72569;SDS011;60594;50.204;8.844;2023-08-01T07:26:11;3.78;;;2.00;;
72569;SDS011;60594;50.204;8.844;2023-08-01T07:28:37;3.70;;;2.00;;
72569;SDS011;60594;50.204;8.844;2023-08-01T07:31:05;5.38;;;2.20;;
72569;SDS011;60594;50.204;8.844;2023-08-01T07:33:33;4.57;;;2.45;;
72569;SDS011;60594;50.204;8.844;2023-08-01T07:36:01;4.07;;;2.20;;
72569;SDS011;60594;50.204;8.844;2023-08-01T07:38:27;4.35;;;2.20;;
72569;SDS011;60594;50.204;8.844;2023-08-01T07:40:55;4.03;;;2.08;;
72569;SDS011;60594;50.204;8.844;2023-08-01T07:43:21;4.15;;;2.22;;
72569;SDS011;60594;50.204;8.844;2023-08-01T07:45:51;4.05;;;2.20;;
72569;SDS011;60594;50.204;8.844;2023-08-01T07:48:21;4.10;;;2.00;;
72569;SDS011;60594;50.204;8.844;2023-08-01T07:50:48;4.40;;;2.40;;
72569;SDS011;60594;50.204;8.844;2023-08-01T07:53:14;3.63;;;2.15;;
72569;SDS011;60594;50.204;8.844;2023-08-01T07:55:41;3.63;;;2.47;;
72569;SDS011;60594;50.204;8.844;2023-08-01T07:58:07;4.53;;;2.40;;
72569;SDS011;60594;50.204;8.844;2023-08-01T08:00:34;4.97;;;2.10;;
72569;SDS011;60594;50.204;8.844;2023-08-01T08:03:01;4.05;;;1.88;;
72569;SDS011;60594;50.204;8.844;2023-08-01T08:05:28;4.18;;;2.03;;
72569;SDS011;60594;50.204;8.844;2023-08-01T08:07:55;6.03;;;2.38;;
72569;SDS011;60594;50.204;8.844;2023-08-01T08:10:21;4.35;;;2.28;;
72569;SDS011;60594;50.204;8.844;2023-08-01T08:12:48;4.20;;;2.10;;
72569;SDS011;60594;50.204;8.844;2023-08-01T08:15:15;6.18;;;2.10;;
72569;SDS011;60594;50.204;8.844;2023-08-01T08:17:42;4.90;;;2.10;;
72569;SDS011;60594;50.204;8.844;2023-08-01T08:20:08;4.07;;;2.40;;
72569;SDS011;60594;50.204;8.844;2023-08-01T08:22:35;5.15;;;2.35;;
72569;SDS011;60594;50.204;8.844;2023-08-01T08:25:02;4.55;;;2.28;;
72569;SDS011;60594;50.204;8.844;2023-08-01T08:27:28;4.50;;;2.10;;
72569;SDS011;60594;50.204;8.844;2023-08-01T08:29:55;5.53;;;2.75;;
72569;SDS011;60594;50.204;8.844;2023-08-01T08:32:21;6.53;;;2.40;;
72569;SDS011;60594;50.204;8.844;2023-08-01T08:34:48;6.57;;;2.38;;
72569;SDS011;60594;50.204;8.844;2023-08-01T08:37:14;4.60;;;2.25;;
72569;SDS011;60594;50.204;8.844;2023-08-01T08:39:41;4.10;;;2.25;;
72569;SDS011;60594;50.204;8.844;2023-08-01T08:42:07;3.92;;;2.08;;
72569;SDS011;60594;50.204;8.844;2023-08-01T08:44:35;3.83;;;2.10;;
72569;SDS011;60594;50.204;8.844;2023-08-01T08:47:10;4.38;;;2.17;;
72569;SDS011;60594;50.204;8.844;2023-08-01T08:49:39;4.20;;;2.35;;
72569;SDS011;60594;50.204;8.844;2023-08-01T08:52:06;5.72;;;2.33;;
72569;SDS011;60594;50.204;8.844;2023-08-01T08:54:34;4.57;;;2.72;;
72569;SDS011;60594;50.204;8.844;2023-08-01T08:57:01;5.20;;;2.42;;
72569;SDS011;60594;50.204;8.844;2023-08-01T08:59:33;4.05;;;2.10;;
72569;SDS011;60594;50.204;8.844;2023-08-01T09:02:00;6.03;;;2.38;;
72569;SDS011;60594;50.204;8.844;2023-08-01T09:04:30;4.40;;;2.20;;
72569;SDS011;60594;50.204;8.844;2023-08-01T09:06:58;4.40;;;2.15;;
72569;SDS011;60594;50.204;8.844;2023-08-01T09:09:29;4.55;;;2.17;;
72569;SDS011;60594;50.204;8.844;2023-08-01T09:11:57;3.92;;;2.10;;
72569;SDS011;60594;50.204;8.844;2023-08-01T09:14:24;4.70;;;2.05;;
72569;SDS011;60594;50.204;8.844;2023-08-01T09:16:51;4.65;;;2.15;;
72569;SDS011;60594;50.204;8.844;2023-08-01T09:19:19;4.55;;;2.15;;
72569;SDS011;60594;50.204;8.844;2023-08-01T09:21:47;4.03;;;1.90;;
72569;SDS011;60594;50.204;8.844;2023-08-01T09:24:15;3.63;;;1.92;;
72569;SDS011;60594;50.204;8.844;2023-08-01T09:26:45;4.00;;;1.83;;
72569;SDS011;60594;50.204;8.844;2023-08-01T09:29:15;3.88;;;1.55;;
72569;SDS011;60594;50.204;8.844;2023-08-01T09:31:42;4.22;;;1.98;;
72569;SDS011;60594;50.204;8.844;2023-08-01T09:34:19;4.03;;;2.10;;
72569;SDS011;60594;50.204;8.844;2023-08-01T09:36:50;5.43;;;2.08;;
72569;SDS011;60594;50.204;8.844;2023-08-01T09:39:19;5.00;;;1.90;;
72569;SDS011;60594;50.204;8.844;2023-08-01T09:41:54;3.95;;;1.73;;
72569;SDS011;60594;50.204;8.844;2023-08-01T09:44:25;3.78;;;1.90;;
72569;SDS011;60594;50.204;8.844;2023-08-01T09:49:27;3.47;;;1.70;;
72569;SDS011;60594;50.204;8.844;2023-08-01T09:51:54;3.60;;;1.73;;
72569;SDS011;60594;50.204;8.844;2023-08-01T09:54:21;3.28;;;1.45;;
72569;SDS011;60594;50.204;8.844;2023-08-01T09:56:49;3.67;;;1.60;;
72569;SDS011;60594;50.204;8.844;2023-08-01T09:59:23;2.88;;;1.52;;
72569;SDS011;60594;50.204;8.844;2023-08-01T10:01:51;3.35;;;1.63;;
72569;SDS011;60594;50.204;8.844;2023-08-01T10:04:24;3.85;;;1.35;;
72569;SDS011;60594;50.204;8.844;2023-08-01T10:07:00;3.40;;;1.50;;
72569;SDS011;60594;50.204;8.844;2023-08-01T10:09:33;3.20;;;1.52;;
72569;SDS011;60594;50.204;8.844;2023-08-01T10:12:01;3.20;;;1.38;;
72569;SDS011;60594;50.204;8.844;2023-08-01T10:14:29;2.70;;;1.40;;
72569;SDS011;60594;50.204;8.844;2023-08-01T10:16:58;3.35;;;1.30;;
72569;SDS011;60594;50.204;8.844;2023-08-01T10:19:24;3.22;;;1.70;;
72569;SDS011;60594;50.204;8.844;2023-08-01T10:21:52;3.17;;;1.17;;
72569;SDS011;60594;50.204;8.844;2023-08-01T10:24:20;3.72;;;1.50;;
72569;SDS011;60594;50.204;8.844;2023-08-01T10:26:47;4.18;;;1.90;;
72569;SDS011;60594;50.204;8.844;2023-08-01T10:29:13;4.00;;;1.65;;
72569;SDS011;60594;50.204;8.844;2023-08-01T10:31:49;3.00;;;1.40;;
72569;SDS011;60594;50.204;8.844;2023-08-01T10:34:17;3.42;;;1.52;;
72569;SDS011;60594;50.204;8.844;2023-08-01T10:39:23;3.40;;;1.70;;
72569;SDS011;60594;50.204;8.844;2023-08-01T10:42:25;3.30;;;1.70;;
72569;SDS011;60594;50.204;8.844;2023-08-01T10:44:47;3.20;;;1.50;;
72569;SDS011;60594;50.204;8.844;2023-08-01T10:47:13;3.22;;;1.80;;
72569;SDS011;60594;50.204;8.844;2023-08-01T10:49:41;3.63;;;1.95;;
72569;SDS011;60594;50.204;8.844;2023-08-01T10:54:43;3.83;;;1.45;;
72569;SDS011;60594;50.204;8.844;2023-08-01T10:57:15;2.72;;;1.38;;
72569;SDS011;60594;50.204;8.844;2023-08-01T10:59:43;2.85;;;1.60;;
72569;SDS011;60594;50.204;8.844;2023-08-01T11:02:10;3.15;;;1.38;;
72569;SDS011;60594;50.204;8.844;2023-08-01T11:04:37;3.15;;;1.55;;
72569;SDS011;60594;50.204;8.844;2023-08-01T11:07:04;3.83;;;1.50;;
72569;SDS011;60594;50.204;8.844;2023-08-01T11:09:31;4.07;;;1.70;;
72569;SDS011;60594;50.204;8.844;2023-08-01T11:11:58;5.15;;;2.20;;
72569;SDS011;60594;50.204;8.844;2023-08-01T11:14:26;4.15;;;1.80;;
72569;SDS011;60594;50.204;8.844;2023-08-01T11:16:54;4.68;;;1.50;;
72569;SDS011;60594;50.204;8.844;2023-08-01T11:19:25;4.05;;;1.83;;
72569;SDS011;60594;50.204;8.844;2023-08-01T11:21:54;3.72;;;1.50;;
72569;SDS011;60594;50.204;8.844;2023-08-01T11:24:23;4.47;;;1.92;;
72569;SDS011;60594;50.204;8.844;2023-08-01T11:26:51;5.82;;;1.75;;
72569;SDS011;60594;50.204;8.844;2023-08-01T11:29:20;4.45;;;1.60;;
72569;SDS011;60594;50.204;8.844;2023-08-01T11:31:54;4.47;;;1.70;;
72569;SDS011;60594;50.204;8.844;2023-08-01T11:34:21;4.63;;;1.42;;
72569;SDS011;60594;50.204;8.844;2023-08-01T11:36:48;3.05;;;1.40;;
72569;SDS011;60594;50.204;8.844;2023-08-01T11:39:15;3.38;;;1.55;;
72569;SDS011;60594;50.204;8.844;2023-08-01T11:41:43;4.82;;;1.50;;
72569;SDS011;60594;50.204;8.844;2023-08-01T11:44:10;3.35;;;1.48;;
72569;SDS011;60594;50.204;8.844;2023-08-01T11:46:38;3.75;;;1.70;;
72569;SDS011;60594;50.204;8.844;2023-08-01T11:49:05;4.22;;;1.17;;
72569;SDS011;60594;50.204;8.844;2023-08-01T11:51:39;4.10;;;1.60;;
72569;SDS011;60594;50.204;8.844;2023-08-01T11:54:06;3.70;;;1.60;;
72569;SDS011;60594;50.204;8.844;2023-08-01T11:56:34;2.92;;;1.20;;
72569;SDS011;60594;50.204;8.844;2023-08-01T11:59:07;4.28;;;1.40;;
72569;SDS011;60594;50.204;8.844;2023-08-01T12:01:38;3.13;;;1.45;;
72569;SDS011;60594;50.204;8.844;2023-08-01T12:04:06;4.10;;;1.40;;
72569;SDS011;60594;50.204;8.844;2023-08-01T12:06:33;3.83;;;1.25;;
72569;SDS011;60594;50.204;8.844;2023-08-01T12:09:08;3.28;;;1.25;;
72569;SDS011;60594;50.204;8.844;2023-08-01T12:11:59;2.72;;;1.52;;
72569;SDS011;60594;50.204;8.844;2023-08-01T12:14:27;3.80;;;1.45;;
72569;SDS011;60594;50.204;8.844;2023-08-01T12:16:54;2.90;;;1.48;;
72569;SDS011;60594;50.204;8.844;2023-08-01T12:19:21;4.72;;;1.77;;
72569;SDS011;60594;50.204;8.844;2023-08-01T12:21:49;4.35;;;2.13;;
72569;SDS011;60594;50.204;8.844;2023-08-01T12:24:15;6.75;;;1.73;;
72569;SDS011;60594;50.204;8.844;2023-08-01T12:26:42;3.88;;;1.67;;
72569;SDS011;60594;50.204;8.844;2023-08-01T12:29:08;4.63;;;2.20;;
72569;SDS011;60594;50.204;8.844;2023-08-01T12:31:36;4.65;;;1.80;;
72569;SDS011;60594;50.204;8.844;2023-08-01T12:34:03;3.50;;;1.70;;
72569;SDS011;60594;50.204;8.844;2023-08-01T12:36:29;3.63;;;1.98;;
72569;SDS011;60594;50.204;8.844;2023-08-01T12:38:56;5.03;;;2.30;;
72569;SDS011;60594;50.204;8.844;2023-08-01T12:41:22;4.75;;;2.08;;
72569;SDS011;60594;50.204;8.844;2023-08-01T12:43:49;3.97;;;1.60;;
72569;SDS011;60594;50.204;8.844;2023-08-01T12:46:16;4.68;;;1.80;;
72569;SDS011;60594;50.204;8.844;2023-08-01T12:48:43;3.80;;;1.80;;
72569;SDS011;60594;50.204;8.844;2023-08-01T12:51:10;4.18;;;1.80;;
72569;SDS011;60594;50.204;8.844;2023-08-01T12:53:36;4.97;;;1.95;;
72569;SDS011;60594;50.204;8.844;2023-08-01T12:56:07;4.00;;;1.60;;
72569;SDS011;60594;50.204;8.844;2023-08-01T12:58:34;2.80;;;1.40;;
72569;SDS011;60594;50.204;8.844;2023-08-01T13:01:02;3.20;;;1.83;;
72569;SDS011;60594;50.204;8.844;2023-08-01T13:03:30;4.78;;;1.63;;
72569;SDS011;60594;50.204;8.844;2023-08-01T13:05:56;3.38;;;1.20;;
72569;SDS011;60594;50.204;8.844;2023-08-01T13:08:24;3.08;;;1.33;;
72569;SDS011;60594;50.204;8.844;2023-08-01T13:10:51;2.10;;;1.10;;
72569;SDS011;60594;50.204;8.844;2023-08-01T13:13:17;3.55;;;1.10;;
72569;SDS011;60594;50.204;8.844;2023-08-01T13:15:44;2.63;;;1.15;;
72569;SDS011;60594;50.204;8.844;2023-08-01T13:18:11;3.33;;;1.40;;
72569;SDS011;60594;50.204;8.844;2023-08-01T13:20:37;3.95;;;1.20;;
72569;SDS011;60594;50.204;8.844;2023-08-01T13:23:04;13.95;;;7.65;;
72569;SDS011;60594;50.204;8.844;2023-08-01T13:25:31;2.72;;;1.20;;
72569;SDS011;60594;50.204;8.844;2023-08-01T13:27:57;2.90;;;1.38;;
72569;SDS011;60594;50.204;8.844;2023-08-01T13:30:24;3.20;;;1.50;;
72569;SDS011;60594;50.204;8.844;2023-08-01T13:32:50;5.07;;;1.40;;
72569;SDS011;60594;50.204;8.844;2023-08-01T13:35:17;3.28;;;1.60;;
72569;SDS011;60594;50.204;8.844;2023-08-01T13:37:43;4.70;;;1.55;;
72569;SDS011;60594;50.204;8.844;2023-08-01T13:40:10;4.05;;;1.55;;
72569;SDS011;60594;50.204;8.844;2023-08-01T13:42:40;4.28;;;1.63;;
72569;SDS011;60594;50.204;8.844;2023-08-01T13:52:26;5.20;;;1.63;;
72569;SDS011;60594;50.204;8.844;2023-08-01T13:54:53;4.88;;;1.70;;
72569;SDS011;60594;50.204;8.844;2023-08-01T13:57:19;3.65;;;1.77;;
72569;SDS011;60594;50.204;8.844;2023-08-01T13:59:46;5.45;;;1.52;;
72569;SDS011;60594;50.204;8.844;2023-08-01T14:02:12;4.10;;;1.73;;
72569;SDS011;60594;50.204;8.844;2023-08-01T14:04:39;3.90;;;1.75;;
72569;SDS011;60594;50.204;8.844;2023-08-01T14:07:06;4.55;;;2.15;;
72569;SDS011;60594;50.204;8.844;2023-08-01T14:09:32;3.10;;;1.48;;
72569;SDS011;60594;50.204;8.844;2023-08-01T14:12:02;4.70;;;1.40;;
72569;SDS011;60594;50.204;8.844;2023-08-01T14:14:30;3.40;;;1.73;;
72569;SDS011;60594;50.204;8.844;2023-08-01T14:16:57;5.70;;;2.30;;
72569;SDS011;60594;50.204;8.844;2023-08-01T14:19:23;5.45;;;2.05;;
72569;SDS011;60594;50.204;8.844;2023-08-01T14:21:56;4.55;;;2.28;;
72569;SDS011;60594;50.204;8.844;2023-08-01T14:24:24;4.78;;;1.58;;
72569;SDS011;60594;50.204;8.844;2023-08-01T14:26:50;4.10;;;2.00;;
72569;SDS011;60594;50.204;8.844;2023-08-01T14:29:18;4.43;;;2.05;;
72569;SDS011;60594;50.204;8.844;2023-08-01T14:31:48;5.07;;;2.15;;
72569;SDS011;60594;50.204;8.844;2023-08-01T14:34:16;4.30;;;2.00;;
72569;SDS011;60594;50.204;8.844;2023-08-01T14:36:42;4.25;;;1.90;;
72569;SDS011;60594;50.204;8.844;2023-08-01T14:39:09;5.78;;;2.03;;
72569;SDS011;60594;50.204;8.844;2023-08-01T14:41:35;6.32;;;2.15;;
72569;SDS011;60594;50.204;8.844;2023-08-01T14:44:02;6.05;;;2.38;;
72569;SDS011;60594;50.204;8.844;2023-08-01T14:46:28;5.57;;;2.20;;
72569;SDS011;60594;50.204;8.844;2023-08-01T14:48:55;4.90;;;2.03;;
72569;SDS011;60594;50.204;8.844;2023-08-01T14:51:22;5.75;;;2.13;;
72569;SDS011;60594;50.204;8.844;2023-08-01T14:53:48;4.38;;;2.30;;
72569;SDS011;60594;50.204;8.844;2023-08-01T14:56:15;5.07;;;2.30;;
72569;SDS011;60594;50.204;8.844;2023-08-01T14:58:41;4.43;;;1.70;;
72569;SDS011;60594;50.204;8.844;2023-08-01T15:01:12;5.13;;;2.20;;
72569;SDS011;60594;50.204;8.844;2023-08-01T15:03:39;4.10;;;1.88;;